Terminal Aerodrome Forecast
Issued by NWS Pendleton, OR

Current Version | Previous Version | Text Only | Print | Product List | Glossary On
Versions: 1 2 3 4 5 6 7 8 9 10 11 12
000
FTUS46 KPDT 222300
TAFPDT
TAF
KPDT 222322Z 2300/2324 29010KT P6SM SCT100
     FM230400 VRB04KT P6SM BKN120
     FM230900 13004KT P6SM BKN090
     FM231900 14004KT P6SM BKN060=

USA.gov is the U.S. government's official web portal to all federal, state and local government web resources and services.